Terminal Aerodrome Forecast
Issued by NWS

Home | Current Version | Previous Version | Text Only | Print | Product List | Glossary On
Versions: 1 2 3 4 5 6 7 8 9 10 11 12 13 14
000
FTUS45 KGGW 301100 RRA
TAFGDV
TAF
KGDV 301143Z 3012/3112 32007KT 6SM BR OVC009
     FM301600 06009KT P6SM FEW010 SCT080
     FM302300 11009KT P6SM SCT250
      AMD LTD TO CLD VIS AND WIND=

USA.gov is the U.S. government's official web portal to all federal, state and local government web resources and services.